Time;durP1;ratioP1;P1;durP2;ratioP2;P2;SDS_P1;SDS_P2;PMS_P1;PMS_P2;Temp;Humidity;BMP_temperature;BMP_pressure;BME280_temperature;BME280_humidity;BME280_pressure;Samples;Min_cycle;Max_cycle;Signal;HPM_P1;HPM_P2
2022/04/30 00:01:01;;;;;;;20.47;11.17;;;13.00;99.90;;;;;;5070891;28;20196;-68
2022/04/30 00:03:28;;;;;;;18.00;10.67;;;13.00;99.90;;;;;;5077140;28;20196;-69
2022/04/30 00:05:55;;;;;;;17.47;10.40;;;13.00;99.90;;;;;;5078677;28;20221;-67
2022/04/30 00:08:23;;;;;;;14.87;9.43;;;13.00;99.90;;;;;;5073636;28;20200;-67
2022/04/30 00:10:52;;;;;;;19.57;10.33;;;13.00;99.90;;;;;;5074122;28;20196;-68
2022/04/30 00:13:18;;;;;;;18.40;10.33;;;13.10;99.90;;;;;;5078258;28;20208;-68
2022/04/30 00:15:45;;;;;;;18.90;9.57;;;13.00;99.90;;;;;;5081601;28;20200;-67
2022/04/30 00:18:12;;;;;;;16.87;8.83;;;13.00;99.90;;;;;;5072330;28;20205;-67
2022/04/30 00:20:45;;;;;;;19.83;9.67;;;13.10;99.90;;;;;;5077451;28;20201;-68
2022/04/30 00:23:21;;;;;;;17.30;9.63;;;13.00;99.90;;;;;;5076843;28;20647;-67
2022/04/30 00:25:53;;;;;;;16.67;9.43;;;13.00;99.90;;;;;;5079227;28;20216;-68
2022/04/30 00:28:22;;;;;;;18.77;9.93;;;12.90;99.90;;;;;;5074352;28;20201;-67
2022/04/30 00:30:49;;;;;;;17.27;9.50;;;12.90;99.90;;;;;;5080339;28;20678;-68
2022/04/30 00:33:16;;;;;;;16.63;9.00;;;12.90;99.90;;;;;;5072733;28;20191;-68
2022/04/30 00:35:43;;;;;;;16.53;9.57;;;13.00;99.90;;;;;;5080654;28;20231;-66
2022/04/30 00:38:10;;;;;;;17.13;9.90;;;12.90;99.90;;;;;;5077700;28;20199;-67
2022/04/30 00:40:37;;;;;;;15.27;9.60;;;13.00;99.90;;;;;;5075465;28;20191;-68
2022/04/30 00:43:04;;;;;;;19.53;9.67;;;13.00;99.90;;;;;;5078538;28;20199;-67
2022/04/30 00:45:30;;;;;;;17.70;10.03;;;13.00;99.90;;;;;;5082661;28;20222;-67
2022/04/30 00:47:58;;;;;;;18.53;9.47;;;13.10;99.90;;;;;;5077473;28;20196;-68
2022/04/30 00:50:30;;;;;;;19.63;9.80;;;13.10;99.90;;;;;;5072883;28;20195;-68
2022/04/30 00:52:59;;;;;;;17.83;9.63;;;13.00;99.90;;;;;;5069598;28;20194;-67
2022/04/30 00:55:30;;;;;;;15.77;9.63;;;12.90;99.90;;;;;;5075537;28;20228;-68
2022/04/30 00:58:02;;;;;;;15.27;9.20;;;12.90;99.90;;;;;;5075682;28;20207;-69
2022/04/30 01:00:29;;;;;;;17.73;9.37;;;12.90;99.90;;;;;;5078230;28;20193;-69
2022/04/30 01:02:56;;;;;;;14.57;9.00;;;12.90;99.90;;;;;;5076102;28;20214;-68
2022/04/30 01:05:23;;;;;;;18.33;9.80;;;13.00;99.90;;;;;;5071186;28;20251;-68
2022/04/30 01:07:51;;;;;;;17.67;9.57;;;13.00;99.90;;;;;;5070657;28;20195;-68
2022/04/30 01:10:18;;;;;;;14.93;9.80;;;13.00;99.90;;;;;;5069455;28;20200;-68
2022/04/30 01:12:46;;;;;;;17.80;10.33;;;13.00;99.90;;;;;;5070920;28;20276;-68
2022/04/30 01:15:13;;;;;;;20.93;9.57;;;12.90;99.90;;;;;;5071403;28;20207;-68
2022/04/30 01:17:42;;;;;;;20.40;10.30;;;12.80;99.90;;;;;;5074176;28;20196;-70
2022/04/30 01:20:10;;;;;;;18.47;9.73;;;12.70;99.90;;;;;;5073212;28;20748;-70
2022/04/30 01:23:01;;;;;;;19.90;10.90;;;12.60;99.90;;;;;;5078688;28;20188;-68
2022/04/30 01:25:31;;;;;;;20.63;10.33;;;12.40;99.90;;;;;;5076426;28;20678;-69
2022/04/30 01:27:59;;;;;;;23.03;11.07;;;12.20;99.90;;;;;;5076239;28;20677;-70
2022/04/30 01:30:27;;;;;;;22.43;10.83;;;11.90;99.90;;;;;;5067629;28;20198;-71
2022/04/30 01:38:27;;;;;;;21.50;10.73;;;11.20;99.90;;;;;;5082040;28;20197;-77
2022/04/30 01:40:53;;;;;;;21.97;11.43;;;11.00;99.90;;;;;;5075455;28;20194;-78
2022/04/30 01:43:21;;;;;;;21.20;11.53;;;10.90;99.90;;;;;;5076398;28;20200;-79
2022/04/30 01:45:48;;;;;;;20.07;11.33;;;10.90;99.90;;;;;;5069598;28;20214;-80
2022/04/30 01:48:15;;;;;;;22.87;11.77;;;10.80;99.90;;;;;;5072903;28;20294;-76
2022/04/30 01:50:42;;;;;;;27.83;12.00;;;10.80;99.90;;;;;;5077111;28;20200;-76
2022/04/30 01:53:10;;;;;;;22.73;11.47;;;10.70;99.90;;;;;;5082806;28;20433;-76
2022/04/30 01:55:37;;;;;;;26.70;12.70;;;10.70;99.90;;;;;;5077525;28;20207;-74
2022/04/30 01:58:05;;;;;;;21.63;11.20;;;10.70;99.90;;;;;;5082452;28;20204;-74
2022/04/30 02:00:32;;;;;;;21.37;12.00;;;10.70;99.90;;;;;;5076228;28;20201;-74
2022/04/30 02:03:08;;;;;;;22.47;11.97;;;10.70;99.90;;;;;;5078672;28;20205;-70
2022/04/30 02:05:37;;;;;;;21.63;12.13;;;10.60;99.90;;;;;;5079623;28;20220;-71
2022/04/30 02:08:09;;;;;;;22.30;12.53;;;10.50;99.90;;;;;;5081288;28;20201;-71
2022/04/30 02:10:37;;;;;;;23.27;12.10;;;10.50;99.90;;;;;;5087335;28;20231;-73
2022/04/30 02:13:06;;;;;;;21.53;12.37;;;10.50;99.90;;;;;;5077287;28;20189;-70
2022/04/30 02:15:34;;;;;;;25.87;12.17;;;10.40;99.90;;;;;;5077347;28;20212;-70
2022/04/30 02:18:03;;;;;;;24.20;12.70;;;10.40;99.90;;;;;;5080979;28;20189;-74
2022/04/30 02:20:34;;;;;;;27.30;13.13;;;10.40;99.90;;;;;;5080836;28;20204;-71
2022/04/30 02:23:02;;;;;;;26.43;13.53;;;10.40;99.90;;;;;;5079324;28;20194;-71
2022/04/30 02:25:30;;;;;;;22.60;13.17;;;10.40;99.90;;;;;;5072871;28;20667;-70
2022/04/30 02:28:04;;;;;;;22.60;13.33;;;10.30;99.90;;;;;;5078065;28;21412;-71
2022/04/30 02:30:35;;;;;;;27.83;14.07;;;10.20;99.90;;;;;;5077319;28;20563;-70
2022/04/30 02:33:10;;;;;;;28.37;13.90;;;10.20;99.90;;;;;;5072317;28;20196;-67
2022/04/30 02:35:39;;;;;;;29.70;14.40;;;10.20;99.90;;;;;;5077020;28;20208;-70
2022/04/30 02:38:08;;;;;;;28.40;14.67;;;10.30;99.90;;;;;;5071573;28;20212;-68
2022/04/30 02:40:36;;;;;;;25.17;14.47;;;10.30;99.90;;;;;;5082647;28;20208;-68
2022/04/30 02:43:09;;;;;;;27.33;14.43;;;10.30;99.90;;;;;;5088891;28;20199;-68
2022/04/30 02:45:37;;;;;;;30.30;15.10;;;10.30;99.90;;;;;;5075401;28;20694;-69
2022/04/30 02:48:06;;;;;;;27.27;15.23;;;10.40;99.90;;;;;;5074369;28;20186;-69
2022/04/30 02:50:35;;;;;;;30.80;16.10;;;10.50;99.90;;;;;;5078743;28;20186;-70
2022/04/30 02:53:02;;;;;;;30.80;16.77;;;10.50;99.90;;;;;;5081068;28;20197;-71
2022/04/30 02:55:29;;;;;;;28.30;15.07;;;10.50;99.90;;;;;;5074195;28;20218;-73
2022/04/30 03:00:44;;;;;;;28.57;15.73;;;10.50;99.90;;;;;;5076746;28;20690;-74
2022/04/30 03:03:12;;;;;;;30.53;15.80;;;10.50;99.90;;;;;;5070330;28;20189;-74
2022/04/30 03:05:42;;;;;;;29.97;16.33;;;10.50;99.90;;;;;;5091023;28;20187;-73
2022/04/30 03:08:19;;;;;;;30.13;16.17;;;10.50;99.90;;;;;;5085067;28;20561;-77
2022/04/30 03:10:48;;;;;;;27.43;16.37;;;10.50;99.90;;;;;;5079754;28;20219;-76
2022/04/30 03:13:17;;;;;;;29.07;15.43;;;10.50;99.90;;;;;;5073543;28;20552;-75
2022/04/30 03:15:45;;;;;;;30.50;16.17;;;10.60;99.90;;;;;;5075616;28;20296;-78
2022/04/30 03:23:35;;;;;;;25.83;14.57;;;10.50;99.90;;;;;;5079958;28;20220;-76
2022/04/30 03:26:01;;;;;;;27.37;14.53;;;10.50;99.90;;;;;;5072057;28;20219;-75
2022/04/30 03:28:28;;;;;;;25.93;14.40;;;10.50;99.90;;;;;;5077303;28;20205;-70
2022/04/30 03:30:54;;;;;;;31.70;15.83;;;10.60;99.90;;;;;;5079472;28;20534;-77
2022/04/30 03:33:21;;;;;;;22.93;13.93;;;10.60;99.90;;;;;;5078570;28;20198;-76
2022/04/30 03:35:48;;;;;;;29.83;16.60;;;10.60;99.90;;;;;;5087281;28;20201;-75
2022/04/30 03:38:15;;;;;;;28.37;15.50;;;10.70;99.90;;;;;;5079266;28;20194;-77
2022/04/30 03:40:42;;;;;;;29.03;15.30;;;10.90;99.90;;;;;;5078870;28;20190;-73
2022/04/30 03:43:08;;;;;;;27.13;15.27;;;10.70;99.90;;;;;;5074187;28;20190;-78
2022/04/30 03:45:36;;;;;;;28.50;16.10;;;10.70;99.90;;;;;;5075376;28;20766;-76
2022/04/30 03:48:04;;;;;;;28.87;15.67;;;10.80;99.90;;;;;;5084570;28;20213;-76
2022/04/30 03:50:31;;;;;;;27.70;15.53;;;10.70;99.90;;;;;;5077915;28;20657;-76
2022/04/30 03:52:57;;;;;;;26.10;15.27;;;10.60;99.90;;;;;;5085233;28;20536;-71
2022/04/30 03:55:24;;;;;;;26.93;15.07;;;10.60;99.90;;;;;;5079907;28;20211;-78
2022/04/30 03:57:51;;;;;;;33.23;16.00;;;10.70;99.90;;;;;;5077087;28;20664;-76
2022/04/30 04:00:19;;;;;;;24.87;14.90;;;10.70;99.90;;;;;;5079980;28;20203;-74
2022/04/30 04:02:46;;;;;;;28.47;15.80;;;10.60;99.90;;;;;;5079650;28;20229;-77
2022/04/30 04:05:13;;;;;;;32.23;16.07;;;10.50;99.90;;;;;;5077852;28;20222;-76
2022/04/30 04:07:41;;;;;;;29.80;17.17;;;10.40;99.90;;;;;;5081168;28;20221;-77
2022/04/30 04:10:09;;;;;;;31.00;17.23;;;10.40;99.90;;;;;;5078924;28;20205;-76
2022/04/30 04:12:37;;;;;;;28.20;16.67;;;10.50;99.90;;;;;;5076390;28;20189;-77
2022/04/30 04:17:53;;;;;;;31.43;16.33;;;10.50;99.90;;;;;;5053546;28;20220;-76
2022/04/30 04:20:25;;;;;;;30.67;17.03;;;10.60;99.90;;;;;;5080307;28;20216;-77
2022/04/30 04:22:54;;;;;;;26.87;15.53;;;10.70;99.90;;;;;;5082800;28;20193;-75
2022/04/30 04:28:07;;;;;;;31.40;15.53;;;10.50;99.90;;;;;;5080472;28;20225;-76
2022/04/30 04:30:34;;;;;;;28.80;16.03;;;10.70;99.90;;;;;;5082361;28;20194;-75
2022/04/30 04:33:01;;;;;;;30.30;16.07;;;10.70;99.90;;;;;;5078021;28;20204;-77
2022/04/30 04:35:28;;;;;;;29.20;16.87;;;10.70;99.90;;;;;;5085234;28;20241;-76
2022/04/30 04:37:55;;;;;;;28.50;16.40;;;10.60;99.90;;;;;;5085293;28;20215;-76
2022/04/30 04:40:22;;;;;;;28.73;14.80;;;10.60;99.90;;;;;;5076549;28;20228;-75
2022/04/30 04:42:48;;;;;;;27.97;16.10;;;10.70;99.90;;;;;;5078668;28;20209;-76
2022/04/30 04:45:15;;;;;;;30.70;16.20;;;10.60;99.90;;;;;;5081884;28;20559;-76
2022/04/30 04:47:49;;;;;;;31.00;15.40;;;10.60;99.90;;;;;;5070638;28;20219;-76
2022/04/30 04:50:16;;;;;;;28.13;16.00;;;10.60;99.90;;;;;;5077359;28;20221;-77
2022/04/30 04:52:44;;;;;;;27.40;15.37;;;10.70;99.90;;;;;;5069172;28;20194;-75
2022/04/30 04:55:11;;;;;;;26.20;15.70;;;10.60;99.90;;;;;;5079724;28;20490;-77
2022/04/30 04:57:38;;;;;;;20.73;13.63;;;10.60;99.90;;;;;;5073440;28;20197;-77
2022/04/30 05:00:06;;;;;;;29.03;15.50;;;10.70;99.90;;;;;;5067823;28;20205;-75
2022/04/30 05:02:33;;;;;;;20.97;13.50;;;10.80;99.90;;;;;;5067933;28;20605;-77
2022/04/30 05:05:00;;;;;;;22.10;12.77;;;10.90;99.90;;;;;;5073130;28;20696;-77
2022/04/30 05:07:26;;;;;;;22.43;13.57;;;11.00;99.90;;;;;;5077017;28;20589;-75
2022/04/30 05:09:53;;;;;;;23.80;14.13;;;10.90;99.90;;;;;;5069575;28;20600;-76
2022/04/30 05:12:20;;;;;;;24.00;13.60;;;10.90;99.90;;;;;;5077453;28;20204;-77
2022/04/30 05:14:48;;;;;;;22.03;13.50;;;10.90;99.90;;;;;;5075704;28;20489;-78
2022/04/30 05:17:15;;;;;;;18.97;12.47;;;11.10;99.90;;;;;;5072844;28;20191;-77
2022/04/30 05:19:42;;;;;;;20.13;11.80;;;11.20;99.90;;;;;;5078773;28;20194;-74
2022/04/30 05:22:08;;;;;;;20.60;11.87;;;11.10;99.90;;;;;;5080161;28;20671;-76
2022/04/30 05:24:35;;;;;;;20.90;12.00;;;11.20;99.90;;;;;;5071995;28;20218;-71
2022/04/30 05:27:02;;;;;;;19.27;11.50;;;11.30;99.90;;;;;;5079582;28;20225;-70
2022/04/30 05:29:29;;;;;;;17.70;11.33;;;11.40;99.90;;;;;;5073510;28;20198;-73
2022/04/30 05:31:56;;;;;;;21.87;12.60;;;11.20;99.90;;;;;;5080195;28;20672;-72
2022/04/30 05:34:22;;;;;;;18.27;11.40;;;11.20;99.90;;;;;;5072429;28;20222;-72
2022/04/30 05:36:49;;;;;;;18.00;11.17;;;11.20;99.90;;;;;;5081566;28;20201;-73
2022/04/30 05:39:16;;;;;;;18.60;12.73;;;11.30;99.90;;;;;;5069750;28;20194;-71
2022/04/30 05:41:42;;;;;;;19.93;11.80;;;11.30;99.90;;;;;;5071582;28;20243;-73
2022/04/30 05:44:09;;;;;;;19.40;11.70;;;11.30;99.90;;;;;;5075739;28;20223;-73
2022/04/30 05:46:36;;;;;;;20.77;12.00;;;11.30;99.90;;;;;;5068228;28;20226;-74
2022/04/30 05:49:02;;;;;;;17.83;11.67;;;11.30;99.90;;;;;;5071316;28;20191;-74
2022/04/30 05:51:29;;;;;;;18.47;11.47;;;11.30;99.90;;;;;;5073139;28;20202;-74
2022/04/30 05:53:57;;;;;;;17.00;10.83;;;11.20;99.90;;;;;;5068246;28;20218;-72
2022/04/30 05:56:24;;;;;;;17.27;11.47;;;11.20;99.90;;;;;;5068747;28;20190;-74
2022/04/30 05:58:50;;;;;;;19.87;11.70;;;11.20;99.90;;;;;;5069056;28;20209;-73
2022/04/30 06:01:17;;;;;;;15.20;10.23;;;11.10;99.90;;;;;;5076140;28;20601;-75
2022/04/30 06:03:44;;;;;;;17.83;11.30;;;11.20;99.90;;;;;;5073454;28;20217;-75
2022/04/30 06:06:11;;;;;;;15.30;10.07;;;11.10;99.90;;;;;;5074988;28;20289;-77
2022/04/30 06:08:37;;;;;;;16.73;10.33;;;11.00;99.90;;;;;;5070487;28;20233;-76
2022/04/30 06:11:04;;;;;;;16.67;10.90;;;11.00;99.90;;;;;;5075027;28;20215;-75
2022/04/30 06:13:31;;;;;;;21.13;11.07;;;10.90;99.90;;;;;;5067503;28;20720;-78
2022/04/30 06:15:57;;;;;;;17.67;10.57;;;10.80;99.90;;;;;;5069593;28;20577;-76
2022/04/30 06:18:25;;;;;;;16.70;10.67;;;10.90;99.90;;;;;;5072182;28;21034;-73
2022/04/30 06:20:52;;;;;;;17.40;11.33;;;10.90;99.90;;;;;;5068442;28;20194;-75
2022/04/30 06:23:18;;;;;;;18.83;10.57;;;10.90;99.90;;;;;;5071373;28;20191;-73
2022/04/30 06:25:45;;;;;;;19.13;10.37;;;10.80;99.90;;;;;;5074637;28;20195;-69
2022/04/30 06:28:13;;;;;;;15.93;10.60;;;10.70;99.90;;;;;;5079847;28;20235;-69
2022/04/30 06:30:41;;;;;;;16.70;10.27;;;10.70;99.90;;;;;;5080662;28;20657;-70
2022/04/30 06:33:09;;;;;;;17.40;10.60;;;10.70;99.90;;;;;;5072156;28;20197;-69
2022/04/30 06:35:37;;;;;;;17.77;10.93;;;10.60;99.90;;;;;;5073135;28;20217;-69
2022/04/30 06:38:04;;;;;;;18.07;10.80;;;10.60;99.90;;;;;;5078525;28;20676;-68
2022/04/30 06:40:31;;;;;;;15.23;10.43;;;10.60;99.90;;;;;;5085409;28;20202;-68
2022/04/30 06:42:59;;;;;;;15.83;10.03;;;10.60;99.90;;;;;;5078465;28;20645;-68
2022/04/30 06:45:26;;;;;;;16.53;10.53;;;10.50;99.90;;;;;;5086111;28;20219;-68
2022/04/30 06:47:52;;;;;;;15.47;10.27;;;10.30;99.90;;;;;;5078704;28;20245;-68
2022/04/30 06:50:19;;;;;;;16.10;10.40;;;10.20;99.90;;;;;;5071061;28;20200;-68
2022/04/30 06:58:17;;;;;;;15.23;9.83;;;10.30;99.90;;;;;;5073031;28;20728;-68
2022/04/30 07:03:29;;;;;;;18.30;10.00;;;10.40;99.90;;;;;;5075574;28;20659;-68
2022/04/30 07:06:04;;;;;;;17.03;10.43;;;10.40;99.90;;;;;;5079065;28;20278;-68
2022/04/30 07:08:32;;;;;;;14.27;9.57;;;10.40;99.90;;;;;;5078507;28;20282;-68
2022/04/30 07:11:02;;;;;;;16.37;9.43;;;10.30;99.90;;;;;;5076228;28;20284;-68
2022/04/30 07:13:32;;;;;;;15.33;9.43;;;10.30;99.90;;;;;;5070741;28;20202;-68
2022/04/30 07:15:59;;;;;;;14.77;9.03;;;10.30;99.90;;;;;;5076124;28;20678;-69
2022/04/30 07:18:26;;;;;;;16.63;9.77;;;10.20;99.90;;;;;;5077803;28;20203;-68
2022/04/30 07:20:53;;;;;;;14.83;9.43;;;10.10;99.90;;;;;;5076384;28;20204;-68
2022/04/30 07:23:20;;;;;;;17.47;10.20;;;10.30;99.90;;;;;;5074422;28;20337;-68
2022/04/30 07:25:48;;;;;;;15.23;10.07;;;10.30;99.90;;;;;;5077020;28;20282;-68
2022/04/30 07:28:15;;;;;;;13.80;9.87;;;10.30;99.90;;;;;;5075410;28;20208;-68
2022/04/30 07:30:41;;;;;;;15.80;10.00;;;10.30;99.90;;;;;;5073481;28;20224;-68
2022/04/30 07:33:08;;;;;;;15.07;9.47;;;10.40;99.90;;;;;;5081273;28;20196;-68
2022/04/30 07:35:35;;;;;;;16.17;10.23;;;10.40;99.90;;;;;;5076383;28;20211;-68
2022/04/30 07:38:02;;;;;;;16.27;9.67;;;10.40;99.90;;;;;;5073238;28;20696;-68
2022/04/30 07:40:28;;;;;;;14.73;9.57;;;10.40;99.90;;;;;;5070418;28;20205;-69
2022/04/30 07:42:57;;;;;;;14.37;9.53;;;10.50;99.90;;;;;;5070027;28;20216;-69
2022/04/30 07:45:23;;;;;;;15.07;9.50;;;10.60;99.90;;;;;;5070388;28;20725;-69
2022/04/30 07:47:50;;;;;;;14.83;9.17;;;10.70;99.90;;;;;;5070159;28;20226;-67
2022/04/30 07:50:17;;;;;;;13.13;9.07;;;10.60;99.90;;;;;;5070278;28;20191;-66
2022/04/30 07:52:44;;;;;;;15.57;10.27;;;10.50;99.90;;;;;;5079489;28;20571;-69
2022/04/30 07:55:11;;;;;;;14.10;8.90;;;10.50;99.90;;;;;;5076536;28;20206;-69
2022/04/30 07:57:37;;;;;;;15.30;9.17;;;10.50;99.90;;;;;;5072751;28;20191;-69
2022/04/30 08:00:05;;;;;;;14.93;9.50;;;10.60;99.90;;;;;;5072576;28;20200;-69
2022/04/30 08:02:31;;;;;;;15.63;9.70;;;10.70;99.90;;;;;;5081281;28;20197;-69
2022/04/30 08:05:01;;;;;;;13.77;8.90;;;10.60;99.90;;;;;;5083978;28;20213;-70
2022/04/30 08:07:28;;;;;;;15.53;9.40;;;10.60;99.90;;;;;;5073474;28;20241;-69
2022/04/30 08:09:54;;;;;;;15.90;9.40;;;10.60;99.90;;;;;;5075830;28;20205;-69
2022/04/30 08:12:21;;;;;;;13.57;8.50;;;10.60;99.90;;;;;;5080781;28;20200;-69
2022/04/30 08:14:48;;;;;;;12.70;8.67;;;10.50;99.90;;;;;;5075414;28;20221;-69
2022/04/30 08:17:15;;;;;;;12.73;8.77;;;10.50;99.90;;;;;;5080693;28;20200;-67
2022/04/30 08:19:41;;;;;;;11.40;8.17;;;10.40;99.90;;;;;;5077450;28;20657;-66
2022/04/30 08:22:09;;;;;;;12.27;8.60;;;10.30;99.90;;;;;;5076620;28;20196;-67
2022/04/30 08:24:41;;;;;;;12.57;8.20;;;10.30;99.90;;;;;;5072175;28;20283;-66
2022/04/30 08:27:08;;;;;;;13.03;8.50;;;10.20;99.90;;;;;;5083055;28;20290;-68
2022/04/30 08:29:35;;;;;;;15.57;8.53;;;10.20;99.90;;;;;;5077771;28;20200;-67
2022/04/30 08:32:02;;;;;;;14.87;8.33;;;10.30;99.90;;;;;;5082324;28;20663;-68
2022/04/30 08:34:30;;;;;;;13.77;9.40;;;10.30;99.90;;;;;;5079430;28;20248;-69
2022/04/30 08:36:56;;;;;;;12.80;9.07;;;10.40;99.90;;;;;;5088416;28;20203;-70
2022/04/30 08:39:24;;;;;;;13.17;8.33;;;10.40;99.90;;;;;;5075095;28;20207;-68
2022/04/30 08:41:50;;;;;;;12.17;8.50;;;10.40;99.90;;;;;;5078967;28;20198;-67
2022/04/30 08:44:18;;;;;;;14.30;9.17;;;10.40;99.90;;;;;;5087157;28;20315;-69
2022/04/30 08:46:45;;;;;;;14.10;8.50;;;10.40;99.90;;;;;;5075689;28;20194;-69
2022/04/30 08:49:12;;;;;;;13.67;9.23;;;10.50;99.90;;;;;;5071678;28;20854;-70
2022/04/30 08:51:39;;;;;;;12.20;8.37;;;10.60;99.90;;;;;;5070600;28;20197;-70
2022/04/30 08:54:06;;;;;;;13.53;9.17;;;10.50;99.90;;;;;;5071161;28;20307;-67
2022/04/30 08:56:36;;;;;;;12.30;8.73;;;10.60;99.90;;;;;;5075354;28;20200;-67
2022/04/30 08:59:07;;;;;;;12.57;8.33;;;10.60;99.90;;;;;;5069481;28;20286;-74
2022/04/30 09:01:55;;;;;;;12.47;8.53;;;10.70;99.90;;;;;;5073618;28;20204;-69
2022/04/30 09:04:22;;;;;;;12.80;7.83;;;10.60;99.90;;;;;;5073593;28;20239;-69
2022/04/30 09:06:51;;;;;;;12.63;7.87;;;10.60;99.90;;;;;;5071932;28;20267;-68
2022/04/30 09:09:29;;;;;;;12.70;7.90;;;10.50;99.90;;;;;;5067282;28;20230;-68
2022/04/30 09:12:07;;;;;;;13.73;7.90;;;10.30;99.90;;;;;;5072736;28;20213;-68
2022/04/30 09:14:34;;;;;;;13.53;8.50;;;10.40;99.90;;;;;;5074053;28;20219;-67
2022/04/30 09:17:12;;;;;;;13.00;8.57;;;10.40;99.90;;;;;;5072517;28;20246;-66
2022/04/30 09:19:53;;;;;;;14.03;8.30;;;10.40;99.90;;;;;;5073531;28;20197;-67
2022/04/30 09:22:34;;;;;;;14.37;8.87;;;10.30;99.90;;;;;;5074697;28;20200;-67
2022/04/30 09:25:07;;;;;;;13.67;8.37;;;10.30;99.90;;;;;;5069551;28;20239;-66
2022/04/30 09:27:54;;;;;;;20.53;8.57;;;10.40;99.90;;;;;;5067083;28;20681;-67
2022/04/30 09:30:29;;;;;;;12.80;8.27;;;10.50;99.90;;;;;;5073946;28;20295;-66
2022/04/30 09:33:05;;;;;;;14.00;9.20;;;10.50;99.90;;;;;;5054866;28;20628;-68
2022/04/30 09:38:19;;;;;;;15.50;8.83;;;10.60;99.90;;;;;;5059604;28;20197;-70
2022/04/30 09:40:53;;;;;;;15.47;9.43;;;10.70;99.90;;;;;;5067282;28;20212;-72
2022/04/30 09:43:20;;;;;;;14.27;9.47;;;10.80;99.90;;;;;;5069611;28;20212;-72
2022/04/30 09:45:46;;;;;;;13.00;9.00;;;10.80;99.90;;;;;;5072288;28;20198;-70
2022/04/30 09:53:56;;;;;;;14.23;9.33;;;10.80;99.90;;;;;;5069103;28;20734;-68
2022/04/30 09:56:40;;;;;;;16.00;9.10;;;10.80;99.90;;;;;;5069763;28;20648;-66
2022/04/30 09:59:12;;;;;;;12.67;8.33;;;10.60;99.90;;;;;;5075242;28;20207;-66
2022/04/30 10:01:41;;;;;;;13.53;8.90;;;10.60;99.90;;;;;;5067876;28;20488;-68
2022/04/30 10:04:10;;;;;;;12.33;8.27;;;10.50;99.90;;;;;;5065745;28;20219;-66
2022/04/30 10:06:43;;;;;;;13.87;8.60;;;10.50;99.90;;;;;;5069449;28;20205;-68
2022/04/30 10:09:22;;;;;;;14.50;8.33;;;10.40;99.90;;;;;;5066710;28;20616;-68
2022/04/30 10:12:06;;;;;;;12.57;8.07;;;10.50;99.90;;;;;;5076863;28;20205;-70
2022/04/30 10:15:00;;;;;;;16.00;8.70;;;10.60;99.90;;;;;;5071293;28;20221;-68
2022/04/30 10:17:33;;;;;;;15.77;9.73;;;10.80;99.90;;;;;;5071249;28;20215;-69
2022/04/30 10:20:18;;;;;;;12.23;8.00;;;10.80;99.90;;;;;;5069525;28;20203;-67
2022/04/30 10:22:56;;;;;;;11.23;7.50;;;10.90;99.90;;;;;;5072861;28;20217;-68
2022/04/30 10:25:43;;;;;;;14.43;9.00;;;10.90;99.90;;;;;;5077355;28;20251;-68
2022/04/30 10:28:19;;;;;;;15.93;8.13;;;10.90;99.90;;;;;;5077339;28;20687;-68
2022/04/30 10:30:58;;;;;;;13.20;8.23;;;11.00;99.90;;;;;;5071126;28;20191;-70
2022/04/30 10:33:25;;;;;;;14.03;8.30;;;11.00;99.90;;;;;;5076819;28;20190;-72
2022/04/30 10:36:06;;;;;;;13.30;7.93;;;11.20;99.90;;;;;;5074191;28;20198;-73
2022/04/30 10:38:33;;;;;;;13.43;8.63;;;11.20;99.90;;;;;;5075840;28;20198;-68
2022/04/30 10:41:03;;;;;;;12.93;8.73;;;11.30;99.90;;;;;;5076421;28;20826;-68
2022/04/30 10:43:35;;;;;;;12.87;8.17;;;11.30;99.90;;;;;;5074410;28;20210;-69
2022/04/30 10:46:04;;;;;;;14.40;8.77;;;11.20;99.90;;;;;;5076012;28;20202;-68
2022/04/30 10:48:35;;;;;;;14.13;9.40;;;11.30;99.90;;;;;;5072611;28;20223;-68
2022/04/30 10:51:06;;;;;;;12.83;8.20;;;11.20;99.90;;;;;;5069915;28;20199;-69
2022/04/30 10:53:34;;;;;;;11.93;7.90;;;11.30;99.90;;;;;;5076723;28;20299;-71
2022/04/30 10:56:02;;;;;;;12.97;7.80;;;11.40;99.90;;;;;;5081587;28;20652;-71
2022/04/30 10:58:30;;;;;;;12.07;8.47;;;11.40;99.90;;;;;;5081213;28;20206;-71
2022/04/30 11:01:09;;;;;;;14.00;8.70;;;11.50;99.90;;;;;;5073520;28;20209;-76
2022/04/30 11:03:35;;;;;;;14.63;8.80;;;11.50;99.90;;;;;;5070313;28;20709;-74
2022/04/30 11:06:02;;;;;;;11.83;8.37;;;11.40;99.90;;;;;;5067172;28;20201;-70
2022/04/30 11:08:29;;;;;;;16.53;9.83;;;11.20;99.90;;;;;;5068811;28;20853;-69
2022/04/30 11:10:56;;;;;;;15.70;9.27;;;11.10;99.90;;;;;;5078210;28;20208;-70
2022/04/30 11:13:22;;;;;;;13.73;8.97;;;11.10;99.90;;;;;;5077670;28;20704;-70
2022/04/30 11:15:49;;;;;;;16.87;9.17;;;11.10;99.90;;;;;;5073175;28;20213;-71
2022/04/30 11:18:19;;;;;;;17.17;9.90;;;11.00;99.90;;;;;;5066159;28;20860;-69
2022/04/30 11:20:46;;;;;;;15.23;9.60;;;10.80;99.90;;;;;;5066779;28;20670;-69
2022/04/30 11:23:23;;;;;;;19.13;11.00;;;10.80;99.90;;;;;;5075412;28;20209;-67
2022/04/30 11:25:50;;;;;;;16.30;10.40;;;10.90;99.90;;;;;;5070040;28;20201;-70
2022/04/30 11:28:16;;;;;;;15.67;9.63;;;10.80;99.90;;;;;;5079415;28;20215;-70
2022/04/30 11:30:45;;;;;;;16.63;10.13;;;10.90;99.90;;;;;;5069348;28;20203;-70
2022/04/30 11:33:12;;;;;;;19.57;10.80;;;10.90;99.90;;;;;;5080086;28;20191;-67
2022/04/30 11:35:39;;;;;;;15.43;10.30;;;10.90;99.90;;;;;;5072491;28;20621;-70
2022/04/30 11:38:10;;;;;;;17.07;11.47;;;10.80;99.90;;;;;;5078645;28;20197;-70
2022/04/30 11:40:43;;;;;;;16.47;10.57;;;10.90;99.90;;;;;;5069617;28;20210;-68
2022/04/30 11:43:10;;;;;;;19.43;10.83;;;10.90;99.90;;;;;;5074032;28;20200;-68
2022/04/30 11:45:43;;;;;;;18.40;11.40;;;10.90;99.90;;;;;;5069744;28;20208;-68
2022/04/30 11:48:10;;;;;;;16.17;10.47;;;10.90;99.90;;;;;;5072955;28;20221;-68
2022/04/30 11:50:39;;;;;;;17.63;11.30;;;10.80;99.90;;;;;;5075417;28;20200;-68
2022/04/30 11:53:07;;;;;;;20.00;11.97;;;10.70;99.90;;;;;;5075711;28;20191;-69
2022/04/30 11:55:38;;;;;;;18.60;11.23;;;10.70;99.90;;;;;;5077150;28;20237;-68
2022/04/30 11:58:04;;;;;;;16.60;10.33;;;10.70;99.90;;;;;;5078703;28;20205;-68
2022/04/30 12:00:52;;;;;;;19.87;11.83;;;10.80;99.90;;;;;;5070510;28;20282;-68
2022/04/30 12:03:28;;;;;;;18.47;12.30;;;10.90;99.90;;;;;;5075492;28;20280;-68
2022/04/30 12:05:56;;;;;;;19.97;11.13;;;10.90;99.90;;;;;;5078404;28;20246;-69
2022/04/30 12:08:29;;;;;;;20.00;11.53;;;11.10;99.90;;;;;;5079438;28;20304;-71
2022/04/30 12:10:57;;;;;;;17.50;11.03;;;11.30;99.90;;;;;;5076458;28;20232;-70
2022/04/30 12:13:26;;;;;;;16.97;10.87;;;11.40;99.90;;;;;;5076397;28;20189;-71
2022/04/30 12:16:05;;;;;;;19.03;11.60;;;11.10;99.90;;;;;;5077740;28;20198;-70
2022/04/30 12:27:01;;;;;;;18.07;10.77;;;11.80;99.90;;;;;;5076998;28;20193;-78
2022/04/30 12:29:30;;;;;;;17.97;10.83;;;11.70;99.90;;;;;;5087244;28;20222;-77
2022/04/30 12:31:57;;;;;;;16.77;11.00;;;11.70;99.90;;;;;;5075350;28;20203;-75
2022/04/30 12:34:25;;;;;;;17.17;10.73;;;11.80;99.90;;;;;;5072074;28;20243;-78
2022/04/30 12:36:57;;;;;;;17.00;10.13;;;11.90;99.90;;;;;;5073480;28;20275;-78
2022/04/30 12:39:25;;;;;;;16.77;10.30;;;11.90;99.90;;;;;;5076224;28;20199;-75
2022/04/30 12:41:53;;;;;;;16.17;10.47;;;11.90;99.90;;;;;;5071826;28;20201;-75
2022/04/30 12:44:21;;;;;;;15.93;10.63;;;12.00;99.90;;;;;;5072375;28;20223;-72
2022/04/30 12:46:48;;;;;;;15.60;10.17;;;12.10;99.90;;;;;;5071659;28;20203;-72
2022/04/30 12:49:17;;;;;;;15.23;9.80;;;12.00;99.90;;;;;;5076691;28;20221;-74
2022/04/30 12:51:45;;;;;;;18.03;10.47;;;12.00;99.90;;;;;;5079262;28;20187;-74
2022/04/30 12:54:13;;;;;;;15.57;10.27;;;12.20;99.90;;;;;;5078201;28;20227;-74
2022/04/30 12:56:41;;;;;;;18.13;11.00;;;12.30;99.90;;;;;;5073230;28;20202;-71
2022/04/30 12:59:08;;;;;;;19.37;10.53;;;12.10;99.90;;;;;;5074670;28;20222;-72
2022/04/30 13:01:35;;;;;;;16.53;10.90;;;12.00;99.90;;;;;;5074515;28;20308;-74
2022/04/30 13:04:02;;;;;;;17.10;10.73;;;11.70;99.90;;;;;;5074034;28;20220;-75
2022/04/30 13:06:29;;;;;;;18.80;10.97;;;11.50;99.90;;;;;;5073289;28;20199;-79
2022/04/30 13:14:28;;;;;;;18.00;9.90;;;11.20;99.90;;;;;;5075751;28;20296;-77
2022/04/30 13:16:55;;;;;;;16.47;11.27;;;11.20;99.90;;;;;;5074880;28;20899;-77
2022/04/30 13:19:22;;;;;;;15.70;10.10;;;11.30;99.90;;;;;;5079583;28;20720;-78
2022/04/30 13:21:49;;;;;;;17.20;10.40;;;11.40;99.90;;;;;;5072644;28;20663;-78
2022/04/30 13:24:16;;;;;;;16.43;10.97;;;11.50;99.90;;;;;;5072560;28;20607;-78
2022/04/30 13:26:44;;;;;;;18.47;10.10;;;11.50;99.90;;;;;;5070816;28;20714;-79
2022/04/30 13:29:11;;;;;;;16.50;11.17;;;11.40;99.90;;;;;;5078541;28;20263;-80